TimePDT,TemperatureF,Dew PointF,Humidity,Sea Level PressureIn,VisibilityMPH,Wind Direction,Wind SpeedMPH,Gust SpeedMPH,PrecipitationIn,Events,Conditions,WindDirDegrees,DateUTC
12:15 AM,66.4,32.7,29,30.15,10.0,NW,5.8,-,N/A,,Mostly Cloudy,320,2013-07-14 07:15:00
12:35 AM,67.1,32.2,27,30.16,10.0,WSW,4.6,-,N/A,,Mostly Cloudy,250,2013-07-14 07:35:00
12:55 AM,66.2,33.8,30,30.17,10.0,WNW,8.1,-,N/A,,Mostly Cloudy,290,2013-07-14 07:55:00
1:15 AM,63.1,38.1,40,30.15,10.0,Calm,Calm,-,N/A,Rain,Light Rain,0,2013-07-14 08:15:00
1:35 AM,60.8,41.0,48,30.18,10.0,West,9.2,-,N/A,,Scattered Clouds,270,2013-07-14 08:35:00
1:55 AM,62.2,39.0,42,30.16,10.0,ENE,5.8,-,N/A,Rain,Light Rain,60,2013-07-14 08:55:00
2:15 AM,62.8,37.9,40,30.15,10.0,East,4.6,-,N/A,,Mostly Cloudy,80,2013-07-14 09:15:00
2:35 AM,62.6,37.2,39,30.16,10.0,Calm,Calm,-,N/A,,Mostly Cloudy,0,2013-07-14 09:35:00
2:55 AM,60.8,37.0,41,30.14,10.0,East,5.8,-,N/A,Rain,Light Rain,80,2013-07-14 09:55:00
3:15 AM,59.5,34.7,39,30.14,10.0,ENE,9.2,-,N/A,,Clear,60,2013-07-14 10:15:00
3:35 AM,58.5,34.5,41,30.14,10.0,East,8.1,-,N/A,,Scattered Clouds,90,2013-07-14 10:35:00
3:55 AM,58.8,34.0,39,30.14,10.0,East,10.4,-,N/A,,Scattered Clouds,100,2013-07-14 10:55:00
4:15 AM,60.1,34.2,38,30.14,10.0,East,6.9,-,N/A,,Scattered Clouds,90,2013-07-14 11:15:00
4:35 AM,58.6,34.3,40,30.15,10.0,ESE,6.9,-,N/A,,Scattered Clouds,120,2013-07-14 11:35:00
4:55 AM,57.6,34.0,41,30.15,10.0,SE,4.6,-,N/A,,Clear,130,2013-07-14 11:55:00
5:15 AM,59.0,33.8,39,30.15,10.0,Calm,Calm,-,N/A,,Scattered Clouds,0,2013-07-14 12:15:00
5:35 AM,56.8,34.5,43,30.15,10.0,Calm,Calm,-,N/A,,Scattered Clouds,0,2013-07-14 12:35:00
5:55 AM,56.5,35.4,45,30.16,10.0,WNW,3.5,-,N/A,,Clear,300,2013-07-14 12:55:00
6:15 AM,55.8,37.8,51,30.16,10.0,West,3.5,-,N/A,,Clear,270,2013-07-14 13:15:00
6:35 AM,57.7,37.4,47,30.16,10.0,Calm,Calm,-,N/A,,Clear,0,2013-07-14 13:35:00
6:55 AM,59.5,36.7,43,30.16,10.0,Calm,Calm,-,N/A,,Clear,0,2013-07-14 13:55:00
7:15 AM,61.7,36.1,39,30.16,10.0,Calm,Calm,-,N/A,,Clear,0,2013-07-14 14:15:00
7:35 AM,62.6,36.5,38,30.17,10.0,Calm,Calm,-,N/A,,Clear,0,2013-07-14 14:35:00
7:55 AM,64.0,38.3,39,30.17,10.0,Calm,Calm,-,N/A,,Clear,0,2013-07-14 14:55:00
8:15 AM,64.9,38.1,37,30.17,10.0,Calm,Calm,-,N/A,,Clear,0,2013-07-14 15:15:00
8:35 AM,66.0,37.9,36,30.16,10.0,Calm,Calm,-,N/A,,Clear,0,2013-07-14 15:35:00
8:55 AM,68.4,38.5,33,30.16,10.0,Calm,Calm,-,N/A,,Clear,0,2013-07-14 15:55:00
9:15 AM,68.9,38.7,33,30.16,10.0,Calm,Calm,-,N/A,,Clear,0,2013-07-14 16:15:00
9:35 AM,70.5,39.0,32,30.15,10.0,Calm,Calm,-,N/A,,Clear,0,2013-07-14 16:35:00
9:55 AM,72.0,38.7,30,30.15,10.0,Calm,Calm,-,N/A,,Clear,0,2013-07-14 16:55:00
10:15 AM,73.6,38.7,28,30.14,10.0,Calm,Calm,-,N/A,,Clear,0,2013-07-14 17:15:00
10:35 AM,75.7,38.3,26,30.14,10.0,NNW,4.6,-,N/A,,Clear,330,2013-07-14 17:35:00
10:55 AM,78.3,37.6,23,30.13,10.0,WNW,3.5,-,N/A,,Clear,300,2013-07-14 17:55:00
11:15 AM,78.4,37.2,23,30.13,10.0,NW,3.5,-,N/A,,Clear,310,2013-07-14 18:15:00
11:35 AM,80.1,37.8,22,30.12,10.0,NW,3.5,-,N/A,,Clear,320,2013-07-14 18:35:00
11:55 AM,80.6,37.0,21,30.12,10.0,North,4.6,-,N/A,,Clear,10,2013-07-14 18:55:00
12:15 PM,83.7,34.5,17,30.11,10.0,North,3.5,-,N/A,,Clear,10,2013-07-14 19:15:00
12:35 PM,84.7,32.4,15,30.10,10.0,NW,9.2,-,N/A,,Clear,320,2013-07-14 19:35:00
12:55 PM,86.2,34.2,16,30.10,10.0,WNW,9.2,-,N/A,,Clear,290,2013-07-14 19:55:00
1:15 PM,86.5,34.9,16,30.09,10.0,NW,9.2,-,N/A,,Clear,320,2013-07-14 20:15:00
1:35 PM,87.1,34.3,15,30.08,10.0,North,4.6,-,N/A,,Clear,360,2013-07-14 20:35:00
1:55 PM,87.8,34.5,15,30.07,10.0,WNW,5.8,16.1,N/A,,Clear,300,2013-07-14 20:55:00
2:15 PM,88.3,34.0,14,30.06,10.0,NW,9.2,20.7,N/A,,Clear,320,2013-07-14 21:15:00
2:35 PM,89.1,33.8,14,30.05,10.0,West,9.2,-,N/A,,Clear,280,2013-07-14 21:35:00
2:55 PM,89.2,33.6,14,30.05,10.0,NNW,11.5,16.1,N/A,,Clear,330,2013-07-14 21:55:00
3:15 PM,89.8,34.0,14,30.04,10.0,West,15.0,18.4,N/A,,Clear,280,2013-07-14 22:15:00
3:35 PM,89.8,33.3,13,30.03,10.0,WNW,11.5,17.3,N/A,,Clear,300,2013-07-14 22:35:00
3:55 PM,90.0,33.4,13,30.03,10.0,WNW,11.5,-,N/A,,Clear,300,2013-07-14 22:55:00
4:15 PM,90.3,33.4,13,30.02,10.0,NW,12.7,-,N/A,,Clear,310,2013-07-14 23:15:00
4:35 PM,90.1,33.4,13,30.01,10.0,NW,8.1,18.4,N/A,,Clear,310,2013-07-14 23:35:00
4:55 PM,90.1,33.4,13,30.01,10.0,WNW,9.2,12.7,N/A,,Clear,300,2013-07-14 23:55:00
5:15 PM,90.7,34.0,13,30.00,10.0,WNW,10.4,18.4,N/A,,Clear,290,2013-07-15 00:15:00
5:35 PM,90.1,33.4,13,29.99,10.0,WNW,10.4,18.4,N/A,,Clear,290,2013-07-15 00:35:00
5:55 PM,90.0,33.4,13,29.99,10.0,WNW,10.4,17.3,N/A,,Clear,300,2013-07-15 00:55:00
6:15 PM,89.4,32.4,13,29.98,10.0,West,9.2,-,N/A,,Clear,260,2013-07-15 01:15:00
6:35 PM,88.9,32.5,13,29.98,10.0,WNW,9.2,-,N/A,,Clear,300,2013-07-15 01:35:00
6:55 PM,87.8,33.1,14,29.98,10.0,North,10.4,-,N/A,,Clear,350,2013-07-15 01:55:00
7:15 PM,86.4,32.9,15,29.99,10.0,NNW,11.5,17.3,N/A,,Clear,340,2013-07-15 02:15:00
7:35 PM,85.8,33.4,15,29.99,10.0,NNW,6.9,-,N/A,,Clear,330,2013-07-15 02:35:00
7:55 PM,83.5,33.4,17,30.00,10.0,North,5.8,-,N/A,,Clear,360,2013-07-15 02:55:00
8:15 PM,82.2,32.4,17,30.00,10.0,NNW,9.2,-,N/A,,Clear,340,2013-07-15 03:15:00
8:35 PM,79.3,32.9,19,30.00,10.0,North,6.9,-,N/A,,Clear,350,2013-07-15 03:35:00
8:55 PM,78.6,33.6,20,30.01,10.0,NW,6.9,-,N/A,,Clear,310,2013-07-15 03:55:00
9:15 PM,77.4,34.7,21,30.01,10.0,Calm,Calm,-,N/A,,Clear,0,2013-07-15 04:15:00
9:35 PM,76.1,34.7,22,30.02,10.0,Calm,Calm,-,N/A,,Clear,0,2013-07-15 04:35:00
9:55 PM,76.1,34.2,22,30.02,10.0,NNW,4.6,-,N/A,,Clear,340,2013-07-15 04:55:00
10:15 PM,76.1,33.8,21,30.03,10.0,North,9.2,-,N/A,,Clear,350,2013-07-15 05:15:00
10:35 PM,73.8,34.0,23,30.03,10.0,West,3.5,-,N/A,,Clear,280,2013-07-15 05:35:00
10:55 PM,72.0,34.0,25,30.03,10.0,Calm,Calm,-,N/A,,Clear,0,2013-07-15 05:55:00
11:15 PM,71.1,33.8,25,30.04,10.0,NW,3.5,-,N/A,,Clear,310,2013-07-15 06:15:00
11:35 PM,69.6,33.8,27,30.04,10.0,NNW,4.6,-,N/A,,Clear,330,2013-07-15 06:35:00
11:55 PM,68.9,33.6,27,30.04,10.0,Calm,Calm,-,N/A,,Clear,0,2013-07-15 06:55:00